createdAt,value
2019-01-12T00:00:31.800Z,103182.30
2019-01-12T00:03:00.889Z,103166.53
2019-01-12T00:05:30.663Z,103166.86
2019-01-12T00:07:59.738Z,103163.60
2019-01-12T00:10:30.071Z,103166.86
2019-01-12T00:12:59.378Z,103157.36
2019-01-12T00:15:28.730Z,103157.36
2019-01-12T00:17:57.806Z,103160.38
2019-01-12T00:20:26.838Z,103155.78
2019-01-12T00:22:55.959Z,103150.02
2019-01-12T00:25:25.206Z,103149.52
2019-01-12T00:27:54.376Z,103146.07
2019-01-12T00:30:24.889Z,103142.51
2019-01-12T00:32:53.929Z,103142.51
2019-01-12T00:35:24.652Z,103143.05
2019-01-12T00:37:53.806Z,103140.64
2019-01-12T00:40:23.924Z,103141.16
2019-01-12T00:42:53.889Z,103137.41
2019-01-12T00:45:23.694Z,103141.78
2019-01-12T00:47:52.770Z,103144.20
2019-01-12T00:50:38.203Z,103146.38
2019-01-12T00:53:07.255Z,103150.27
2019-01-12T00:55:37.455Z,103149.72
2019-01-12T00:58:06.633Z,103141.91
2019-01-12T01:00:35.820Z,103141.91
2019-01-12T01:03:04.944Z,103149.33
2019-01-12T01:05:34.065Z,103147.42
2019-01-12T01:08:04.157Z,103145.55
2019-01-12T01:10:33.237Z,103141.81
2019-01-12T01:13:02.370Z,103145.88
2019-01-12T01:15:31.443Z,103128.53
2019-01-12T01:18:00.633Z,103134.27
2019-01-12T01:20:29.998Z,103127.47
2019-01-12T01:22:59.068Z,103138.67
2019-01-12T01:25:28.157Z,103141.38
2019-01-12T01:27:57.231Z,103131.55
2019-01-12T01:30:26.410Z,103132.91
2019-01-12T01:32:55.435Z,103130.19
2019-01-12T01:35:27.980Z,103129.05
2019-01-12T01:37:57.381Z,103125.52
2019-01-12T01:40:26.593Z,103130.95
2019-01-12T01:42:55.697Z,103122.04
2019-01-12T01:45:24.884Z,103127.80
2019-01-12T01:47:54.076Z,103131.97
2019-01-12T01:50:24.190Z,103128.73
2019-01-12T01:52:53.602Z,103127.38
2019-01-12T01:55:22.700Z,103127.38
2019-01-12T01:57:52.854Z,103117.14
2019-01-12T02:00:21.891Z,103114.42
2019-01-12T02:02:51.292Z,103110.05
2019-01-12T02:05:20.511Z,103114.42
2019-01-12T02:07:49.682Z,103108.99
2019-01-12T02:10:21.136Z,103112.34
2019-01-12T02:12:50.279Z,103114.55
2019-01-12T02:15:20.298Z,103117.56
2019-01-12T02:17:49.387Z,103120.48
2019-01-12T02:20:18.539Z,103122.69
2019-01-12T02:22:47.604Z,103128.94
2019-01-12T02:25:16.659Z,103129.05
2019-01-12T02:27:45.673Z,103133.42
2019-01-12T02:30:21.329Z,103124.47
2019-01-12T02:32:50.522Z,103122.48
2019-01-12T02:35:19.705Z,103124.27
2019-01-12T02:37:49.549Z,103121.43
2019-01-12T02:43:11.987Z,103111.80
2019-01-12T02:45:41.207Z,103111.51
2019-01-12T02:48:10.375Z,103107.10
2019-01-12T02:50:39.557Z,103102.09
2019-01-12T02:53:09.683Z,103097.18
2019-01-12T02:55:39.983Z,103087.89
2019-01-12T02:58:10.187Z,103078.09
2019-01-12T03:00:40.064Z,103072.02
2019-01-12T03:03:09.245Z,103067.32
2019-01-12T03:05:39.172Z,103058.11
2019-01-12T03:08:08.325Z,103054.05
2019-01-12T03:10:37.420Z,103048.42
2019-01-12T03:13:06.532Z,103035.66
2019-01-12T03:15:35.698Z,103030.78
2019-01-12T03:18:04.804Z,103022.41
2019-01-12T03:20:33.845Z,103019.16
2019-01-12T03:23:02.978Z,103010.82
2019-01-12T03:25:32.114Z,103006.20
2019-01-12T03:28:01.114Z,103000.25
2019-01-12T03:30:30.187Z,102994.09
2019-01-12T03:32:59.213Z,102997.44
2019-01-12T03:35:28.258Z,102996.37
2019-01-12T03:37:57.675Z,102997.73
2019-01-12T03:40:26.839Z,102991.27
2019-01-12T03:42:55.863Z,102984.16
2019-01-12T03:45:25.002Z,102980.08
2019-01-12T03:47:54.066Z,102968.41
2019-01-12T03:50:23.899Z,102974.43
2019-01-12T03:52:52.963Z,102971.72
2019-01-12T03:55:25.823Z,102967.97
2019-01-12T03:57:51.259Z,102963.05
2019-01-12T04:00:22.986Z,102968.48
2019-01-12T04:02:52.798Z,102971.53
2019-01-12T04:05:21.870Z,102973.92
2019-01-12T04:07:51.084Z,102980.70
2019-01-12T04:10:20.178Z,102983.13
2019-01-12T04:12:49.277Z,102985.84
2019-01-12T04:15:18.405Z,102992.09
2019-01-12T04:17:47.547Z,102991.91
2019-01-12T04:20:17.672Z,102996.79
2019-01-12T04:22:46.686Z,102996.60
2019-01-12T04:25:15.752Z,102993.34
2019-01-12T04:27:44.803Z,102993.13
2019-01-12T04:30:16.729Z,102973.08
2019-01-12T04:32:46.344Z,102957.92
2019-01-12T04:35:15.469Z,102959.91
2019-01-12T04:37:44.594Z,102957.41
2019-01-12T04:40:17.863Z,102956.67
2019-01-12T04:42:46.963Z,102951.75
2019-01-12T04:45:16.154Z,102951.75
2019-01-12T04:47:45.288Z,102958.77
2019-01-12T04:50:16.228Z,102958.03
2019-01-12T04:52:45.487Z,102946.84
2019-01-12T04:55:16.000Z,102948.71
2019-01-12T04:57:50.848Z,102947.90
2019-01-12T05:00:21.131Z,102952.70
2019-01-12T05:02:50.212Z,102965.77
2019-01-12T05:08:23.467Z,102946.46
2019-01-12T05:10:52.583Z,102942.50
2019-01-12T05:13:21.772Z,102940.52
2019-01-12T05:15:50.890Z,102936.88
2019-01-12T05:18:19.952Z,102933.83
2019-01-12T05:20:48.981Z,102934.89
2019-01-12T05:23:18.491Z,102924.77
2019-01-12T05:25:49.265Z,102927.48
2019-01-12T05:28:16.645Z,102914.12
2019-01-12T05:30:45.815Z,102916.50
2019-01-12T05:33:14.875Z,102917.86
2019-01-12T05:35:43.914Z,102915.70
2019-01-12T05:38:13.996Z,102908.58
2019-01-12T05:40:43.056Z,102921.13
2019-01-12T05:43:12.199Z,102910.78
2019-01-12T05:45:41.349Z,102901.56
2019-01-12T05:48:10.434Z,102888.84
2019-01-12T05:50:39.436Z,102880.69
2019-01-12T05:53:08.446Z,102864.11
2019-01-12T05:55:37.576Z,102858.27
2019-01-12T05:58:06.748Z,102855.73
2019-01-12T06:00:35.867Z,102850.23
2019-01-12T06:03:05.237Z,102852.11
2019-01-12T06:05:34.454Z,102849.39
2019-01-12T06:08:03.523Z,102851.08
2019-01-12T06:10:32.612Z,102862.23
2019-01-12T06:13:01.843Z,102858.78
2019-01-12T06:15:31.018Z,102849.28
2019-01-12T06:18:00.114Z,102838.72
2019-01-12T06:20:29.353Z,102834.97
2019-01-12T06:22:58.443Z,102825.47
2019-01-12T06:25:27.521Z,102832.77
2019-01-12T06:27:56.709Z,102829.22
2019-01-12T06:30:25.948Z,102827.86
2019-01-12T06:32:55.119Z,102831.74
2019-01-12T06:35:24.235Z,102827.45
2019-01-12T06:37:53.490Z,102829.10
2019-01-12T06:40:22.588Z,102824.81
2019-01-12T06:42:51.670Z,102828.14
2019-01-12T06:45:20.684Z,102825.53
2019-01-12T06:47:49.734Z,102824.80
2019-01-12T06:50:20.136Z,102832.73
2019-01-12T06:52:49.640Z,102830.86
2019-01-12T06:55:18.726Z,102834.70
2019-01-12T06:57:47.863Z,102836.36
2019-01-12T07:00:18.970Z,102824.66
2019-01-12T07:02:48.153Z,102828.54
2019-01-12T07:05:17.952Z,102829.05
2019-01-12T07:07:47.163Z,102823.63
2019-01-12T07:10:16.354Z,102821.20
2019-01-12T07:12:45.552Z,102824.55
2019-01-12T07:15:14.887Z,102827.88
2019-01-12T07:17:44.044Z,102843.95
2019-01-12T07:20:14.984Z,102839.66
2019-01-12T07:22:44.490Z,102835.17
2019-01-12T07:25:13.619Z,102833.27
2019-01-12T07:27:42.819Z,102831.17
2019-01-12T07:30:15.984Z,102825.52
2019-01-12T07:32:45.111Z,102832.30
2019-01-12T07:35:14.373Z,102828.56
2019-01-12T07:37:43.460Z,102820.70
2019-01-12T07:40:12.590Z,102822.06
2019-01-12T07:42:41.693Z,102808.80
2019-01-12T07:45:11.003Z,102805.86
2019-01-12T07:47:40.407Z,102813.28
2019-01-12T07:50:11.376Z,102795.62
2019-01-12T07:52:40.466Z,102797.27
2019-01-12T07:55:09.652Z,102797.89
2019-01-12T07:57:38.846Z,102799.57
2019-01-12T08:00:12.358Z,102796.63
2019-01-12T08:02:41.468Z,102788.26
2019-01-12T08:05:10.748Z,102792.11
2019-01-12T08:07:40.232Z,102799.75
2019-01-12T08:10:13.147Z,102801.40
2019-01-12T08:12:42.999Z,102800.59
2019-01-12T08:15:12.207Z,102798.39
2019-01-12T08:17:41.838Z,102802.75
2019-01-12T08:20:12.568Z,102799.81
2019-01-12T08:22:41.651Z,102798.16
2019-01-12T08:25:10.799Z,102803.59
2019-01-12T08:27:40.800Z,102799.81
2019-01-12T08:30:13.618Z,102800.43
2019-01-12T08:32:43.248Z,102795.55
2019-01-12T08:35:15.227Z,102792.28
2019-01-12T08:37:44.436Z,102795.00
2019-01-12T08:40:14.787Z,102787.79
2019-01-12T08:42:43.902Z,102779.41
2019-01-12T08:45:13.846Z,102774.88
2019-01-12T08:47:43.800Z,102783.95
2019-01-12T08:50:18.177Z,102769.61
2019-01-12T08:52:51.733Z,102781.95
2019-01-12T08:55:22.246Z,102783.41
2019-01-12T08:57:51.629Z,102793.50
2019-01-12T09:00:22.207Z,102788.39
2019-01-12T09:02:53.313Z,102787.32
2019-01-12T09:05:23.294Z,102783.34
2019-01-12T09:07:52.570Z,102780.91
2019-01-12T09:10:22.866Z,102767.65
2019-01-12T09:12:54.590Z,102774.54
2019-01-12T09:15:25.327Z,102767.55
2019-01-12T09:17:55.034Z,102764.05
2019-01-12T09:20:24.281Z,102767.09
2019-01-12T09:22:53.501Z,102776.39
2019-01-12T09:25:22.646Z,102777.52
2019-01-12T09:27:52.518Z,102779.49
2019-01-12T09:30:22.894Z,102778.23
2019-01-12T09:32:52.474Z,102778.52
2019-01-12T09:35:21.899Z,102778.00
2019-01-12T09:37:51.085Z,102769.09
2019-01-12T09:40:21.687Z,102766.99
2019-01-12T09:42:51.223Z,102768.13
2019-01-12T09:45:21.438Z,102765.17
2019-01-12T09:47:50.745Z,102763.07
2019-01-12T09:50:31.698Z,102762.84
2019-01-12T09:53:01.089Z,102760.51
2019-01-12T09:55:30.687Z,102767.92
2019-01-12T09:58:00.111Z,102767.08
2019-01-12T10:00:30.372Z,102765.20
2019-01-12T10:02:59.627Z,102761.13
2019-01-12T10:05:28.854Z,102758.40
2019-01-12T10:08:00.076Z,102747.81
2019-01-12T10:10:30.311Z,102734.30
2019-01-12T10:12:59.685Z,102733.04
2019-01-12T10:15:29.006Z,102738.30
2019-01-12T10:17:58.089Z,102737.56
2019-01-12T10:20:27.253Z,102746.33
2019-01-12T10:22:57.087Z,102739.23
2019-01-12T10:25:27.000Z,102724.89
2019-01-12T10:27:56.156Z,102725.17
2019-01-12T10:30:26.629Z,102735.59
2019-01-12T10:32:56.128Z,102732.45
2019-01-12T10:35:26.370Z,102730.53
2019-01-12T10:37:55.713Z,102735.55
2019-01-12T10:40:24.970Z,102740.98
2019-01-12T10:42:54.981Z,102746.95
2019-01-12T10:45:26.937Z,102755.72
2019-01-12T10:47:56.512Z,102748.92
2019-01-12T10:50:32.521Z,102753.30
2019-01-12T10:53:03.891Z,102747.33
2019-01-12T10:55:33.363Z,102757.14
2019-01-12T10:58:10.758Z,102737.28
2019-01-12T11:00:40.627Z,102739.45
2019-01-12T11:03:11.019Z,102740.01
2019-01-12T11:05:40.293Z,102739.69
2019-01-12T11:08:10.977Z,102745.97
2019-01-12T11:10:40.423Z,102745.45
2019-01-12T11:13:10.706Z,102751.18
2019-01-12T11:15:40.197Z,102744.98
2019-01-12T11:18:09.960Z,102730.40
2019-01-12T11:20:40.289Z,102733.64
2019-01-12T11:23:09.586Z,102732.59
2019-01-12T11:25:43.004Z,102744.09
2019-01-12T11:28:09.361Z,102731.30
2019-01-12T11:30:38.532Z,102723.12
2019-01-12T11:33:07.799Z,102723.97
2019-01-12T11:35:38.804Z,102726.17
2019-01-12T11:38:09.189Z,102721.25
2019-01-12T11:40:38.894Z,102717.17
2019-01-12T11:43:07.983Z,102714.45
2019-01-12T11:45:37.481Z,102724.49
2019-01-12T11:48:06.950Z,102733.50
2019-01-12T11:50:37.225Z,102727.30
2019-01-12T11:53:06.457Z,102721.11
2019-01-12T11:55:36.538Z,102743.48
2019-01-12T11:58:06.507Z,102745.14
2019-01-12T12:00:36.612Z,102729.41
2019-01-12T12:03:07.615Z,102730.86
2019-01-12T12:05:37.739Z,102727.06
2019-01-12T12:08:07.335Z,102724.43
2019-01-12T12:10:36.542Z,102727.44
2019-01-12T12:13:05.885Z,102728.05
2019-01-12T12:15:35.666Z,102732.13
2019-01-12T12:18:04.970Z,102727.01
2019-01-12T12:20:34.132Z,102718.84
2019-01-12T12:23:04.573Z,102719.64
2019-01-12T12:25:33.772Z,102717.77
2019-01-12T12:28:03.820Z,102715.33
2019-01-12T12:30:33.989Z,102724.86
2019-01-12T12:33:05.092Z,102719.41
2019-01-12T12:35:37.870Z,102719.97
2019-01-12T12:38:04.968Z,102716.69
2019-01-12T12:40:35.574Z,102708.52
2019-01-12T12:43:05.639Z,102713.45
2019-01-12T12:45:37.178Z,102714.29
2019-01-12T12:48:07.240Z,102699.55
2019-01-12T12:50:38.191Z,102695.15
2019-01-12T12:53:07.364Z,102696.22
2019-01-12T12:55:42.988Z,102682.61
2019-01-12T12:58:14.048Z,102678.53
2019-01-12T13:00:43.535Z,102684.81
2019-01-12T13:03:12.612Z,102698.42
2019-01-12T13:05:43.944Z,102695.70
2019-01-12T13:08:14.238Z,102678.53
2019-01-12T13:10:43.595Z,102677.69
2019-01-12T13:13:13.997Z,102691.81
2019-01-12T13:15:44.748Z,102684.49
2019-01-12T13:18:13.939Z,102687.53
2019-01-12T13:20:43.652Z,102686.17
2019-01-12T13:23:14.385Z,102688.89
2019-01-12T13:25:43.695Z,102679.05
2019-01-12T13:28:13.218Z,102671.95
2019-01-12T13:30:42.517Z,102669.52
2019-01-12T13:33:12.626Z,102674.67
2019-01-12T13:35:42.023Z,102682.52
2019-01-12T13:38:11.217Z,102683.59
2019-01-12T13:40:40.686Z,102683.28
2019-01-12T13:43:09.781Z,102665.30
2019-01-12T13:45:38.976Z,102660.70
2019-01-12T13:48:08.799Z,102656.06
2019-01-12T13:50:38.685Z,102664.55
2019-01-12T13:53:09.725Z,102657.73
2019-01-12T13:55:38.808Z,102665.91
2019-01-12T13:58:08.226Z,102659.33
2019-01-12T14:00:38.079Z,102656.30
2019-01-12T14:03:08.353Z,102662.81
2019-01-12T14:05:37.800Z,102654.64
2019-01-12T14:08:08.150Z,102648.97
2019-01-12T14:10:37.940Z,102645.72
2019-01-12T14:13:07.699Z,102646.25
2019-01-12T14:15:38.075Z,102635.36
2019-01-12T14:18:07.551Z,102638.08
2019-01-12T14:20:39.256Z,102640.80
2019-01-12T14:23:10.339Z,102654.41
2019-01-12T14:25:41.014Z,102650.85
2019-01-12T14:28:10.229Z,102661.73
2019-01-12T14:30:39.563Z,102652.73
2019-01-12T14:33:08.707Z,102650.01
2019-01-12T14:35:38.482Z,102646.72
2019-01-12T14:38:07.588Z,102629.46
2019-01-12T14:40:36.691Z,102635.66
2019-01-12T14:43:05.846Z,102633.69
2019-01-12T14:45:35.045Z,102636.05
2019-01-12T14:48:04.228Z,102633.55
2019-01-12T14:50:34.098Z,102637.88
2019-01-12T14:53:03.229Z,102634.31
2019-01-12T14:55:32.422Z,102639.70
2019-01-12T14:58:02.862Z,102645.14
2019-01-12T15:00:31.063Z,102645.38
2019-01-12T15:03:00.248Z,102640.45
2019-01-12T15:05:32.810Z,102651.57
2019-01-12T15:08:01.959Z,102649.89
2019-01-12T15:10:31.379Z,102641.44
2019-01-12T15:13:00.747Z,102650.13
2019-01-12T15:15:31.169Z,102646.56
2019-01-12T15:18:00.270Z,102642.80
2019-01-12T15:20:30.677Z,102642.20
2019-01-12T15:22:59.850Z,102644.92
2019-01-12T15:25:29.418Z,102651.20
2019-01-12T15:27:58.701Z,102650.36
2019-01-12T15:30:30.237Z,102650.64
2019-01-12T15:33:01.490Z,102647.64
2019-01-12T15:35:32.497Z,102640.84
2019-01-12T15:38:01.671Z,102646.28
2019-01-12T15:40:30.821Z,102638.34
2019-01-12T15:42:59.915Z,102624.42
2019-01-12T15:45:29.526Z,102627.98
2019-01-12T15:47:58.597Z,102619.22
2019-01-12T15:50:28.515Z,102621.09
2019-01-12T15:52:57.609Z,102632.22
2019-01-12T15:55:26.683Z,102631.61
2019-01-12T15:57:55.827Z,102638.35
2019-01-12T16:00:27.944Z,102639.86
2019-01-12T16:02:57.211Z,102628.60
2019-01-12T16:05:26.920Z,102624.23
2019-01-12T16:07:56.174Z,102634.51
2019-01-12T16:10:25.417Z,102646.43
2019-01-12T16:12:57.325Z,102651.58
2019-01-12T16:15:27.810Z,102649.38
2019-01-12T16:17:58.464Z,102664.86
2019-01-12T16:20:32.507Z,102655.34
2019-01-12T16:23:02.531Z,102651.81
2019-01-12T16:25:31.696Z,102660.58
2019-01-12T16:28:01.833Z,102656.27
2019-01-12T16:30:31.521Z,102662.23
2019-01-12T16:33:00.579Z,102662.52
2019-01-12T16:35:29.689Z,102668.80
2019-01-12T16:37:58.777Z,102656.03
2019-01-12T16:40:28.018Z,102668.05
2019-01-12T16:42:57.027Z,102672.12
2019-01-12T16:45:26.069Z,102668.33
2019-01-12T16:47:55.092Z,102661.85
2019-01-12T16:50:24.190Z,102658.61
2019-01-12T16:52:53.835Z,102656.41
2019-01-12T16:55:23.377Z,102655.05
2019-01-12T16:57:52.435Z,102654.73
2019-01-12T17:00:24.196Z,102661.85
2019-01-12T17:02:54.335Z,102668.66
2019-01-12T17:05:24.465Z,102660.55
2019-01-12T17:07:54.397Z,102671.14
2019-01-12T17:10:23.511Z,102668.13
2019-01-12T17:13:04.235Z,102671.66
2019-01-12T17:15:34.804Z,102661.85
2019-01-12T17:18:02.560Z,102660.72
2019-01-12T17:20:31.685Z,102654.73
2019-01-12T17:23:03.235Z,102673.48
2019-01-12T17:25:32.378Z,102672.96
2019-01-12T17:28:01.999Z,102677.56
2019-01-12T17:30:31.387Z,102676.20
2019-01-12T17:33:01.447Z,102667.75
2019-01-12T17:35:30.615Z,102669.92
2019-01-12T17:37:59.967Z,102663.13
2019-01-12T17:40:29.114Z,102660.17
2019-01-12T17:42:58.322Z,102662.89
2019-01-12T17:45:27.932Z,102652.33
2019-01-12T17:47:57.062Z,102646.89
2019-01-12T17:50:27.875Z,102639.25
2019-01-12T17:52:56.921Z,102642.81
2019-01-12T17:56:30.633Z,102645.53
2019-01-12T17:58:59.674Z,102639.77
2019-01-12T18:01:28.940Z,102627.53
2019-01-12T18:03:58.324Z,102638.73
2019-01-12T18:06:27.441Z,102628.14
2019-01-12T18:08:56.488Z,102620.58
2019-01-12T18:11:25.784Z,102616.22
2019-01-12T18:13:54.845Z,102615.14
2019-01-12T18:16:23.915Z,102615.14
2019-01-12T18:18:52.960Z,102611.59
2019-01-12T18:21:22.021Z,102616.50
2019-01-12T18:23:51.064Z,102613.78
2019-01-12T18:26:20.139Z,102626.03
2019-01-12T18:28:51.587Z,102621.42
2019-01-12T18:31:18.422Z,102618.94
2019-01-12T18:33:48.243Z,102614.62
2019-01-12T18:36:17.679Z,102606.14
2019-01-12T18:38:46.811Z,102618.09
2019-01-12T18:41:16.775Z,102618.94
2019-01-12T18:43:45.984Z,102624.06
2019-01-12T18:46:15.079Z,102615.09
2019-01-12T18:48:45.093Z,102616.36
2019-01-12T18:51:14.214Z,102619.84
2019-01-12T18:53:43.310Z,102621.66
2019-01-12T18:56:12.484Z,102621.28
2019-01-12T18:58:41.600Z,102626.03
2019-01-12T19:01:10.757Z,102622.70
2019-01-12T19:03:40.699Z,102635.72
2019-01-12T19:06:09.930Z,102626.95
2019-01-12T19:08:39.042Z,102641.59
2019-01-12T19:11:08.102Z,102644.02
2019-01-12T19:13:37.310Z,102648.61
2019-01-12T19:16:06.713Z,102658.13
2019-01-12T19:18:36.168Z,102667.13
2019-01-12T19:21:05.315Z,102658.22
2019-01-12T19:23:34.786Z,102661.23
2019-01-12T19:26:04.591Z,102660.48
2019-01-12T19:28:33.638Z,102662.69
2019-01-12T19:31:03.459Z,102666.82
2019-01-12T19:33:32.592Z,102644.31
2019-01-12T19:36:02.825Z,102649.29
2019-01-12T19:38:31.956Z,102641.69
2019-01-12T19:41:01.013Z,102637.66
2019-01-12T19:43:30.047Z,102643.94
2019-01-12T19:45:58.876Z,102632.83
2019-01-12T19:48:27.914Z,102638.03
2019-01-12T19:50:58.617Z,102642.95
2019-01-12T19:53:27.990Z,102641.92
2019-01-12T19:55:57.096Z,102641.36
2019-01-12T19:58:26.262Z,102656.41
2019-01-12T20:00:55.817Z,102645.82
2019-01-12T20:03:26.131Z,102648.31
2019-01-12T20:05:55.855Z,102642.67
2019-01-12T20:08:25.070Z,102630.95
2019-01-12T20:10:54.171Z,102635.87
2019-01-12T20:13:23.246Z,102626.63
2019-01-12T20:15:52.337Z,102629.59
2019-01-12T20:18:21.365Z,102626.34
2019-01-12T20:20:50.454Z,102616.83
2019-01-12T20:23:19.593Z,102610.31
2019-01-12T20:25:49.424Z,102606.98
2019-01-12T20:28:21.489Z,102615.47
2019-01-12T20:31:07.994Z,102619.55
2019-01-12T20:33:49.272Z,102616.50
2019-01-12T20:38:47.810Z,102619.83
2019-01-12T20:42:04.932Z,102613.35
2019-01-12T20:45:05.693Z,102616.36
2019-01-12T20:47:55.033Z,102604.20
2019-01-12T20:50:48.732Z,102600.93
2019-01-12T20:53:37.057Z,102597.92
2019-01-12T20:58:24.797Z,102606.92
2019-01-12T21:03:07.730Z,102619.45
2019-01-12T21:05:56.366Z,102617.48
2019-01-12T21:09:41.164Z,102624.61
2019-01-12T21:12:24.172Z,102625.64
2019-01-12T21:14:59.656Z,102623.77
2019-01-12T21:17:28.946Z,102620.72
2019-01-12T21:19:58.038Z,102616.13
2019-01-12T21:22:27.107Z,102619.69
2019-01-12T21:24:56.147Z,102615.61
2019-01-12T21:27:25.249Z,102621.05
2019-01-12T21:30:03.812Z,102612.36
2019-01-12T21:32:32.972Z,102617.25
2019-01-12T21:35:02.230Z,102620.52
2019-01-12T21:37:31.890Z,102617.20
2019-01-12T21:40:00.882Z,102614.71
2019-01-12T21:42:30.431Z,102613.03
2019-01-12T21:44:59.587Z,102614.11
2019-01-12T21:47:28.621Z,102609.42
2019-01-12T21:49:57.738Z,102606.37
2019-01-12T21:52:27.015Z,102614.77
2019-01-12T21:54:56.018Z,102615.00
2019-01-12T21:57:25.265Z,102614.39
2019-01-12T21:59:54.317Z,102609.48
2019-01-12T22:02:24.136Z,102607.83
2019-01-12T22:04:53.289Z,102610.03
2019-01-12T22:07:22.345Z,102609.19
2019-01-12T22:09:51.578Z,102595.07
2019-01-12T22:12:20.687Z,102598.83
2019-01-12T22:14:49.702Z,102606.98
2019-01-12T22:17:19.503Z,102601.55
2019-01-12T22:19:48.487Z,102602.10
2019-01-12T22:22:17.659Z,102599.38
2019-01-12T22:24:46.751Z,102595.83
2019-01-12T22:27:15.879Z,102593.34
2019-01-12T22:29:49.868Z,102587.34
2019-01-12T22:32:14.147Z,102589.45
2019-01-12T22:34:43.162Z,102598.98
2019-01-12T22:37:13.145Z,102599.77
2019-01-12T22:39:42.190Z,102601.64
2019-01-12T22:42:11.851Z,102599.95
2019-01-12T22:44:40.998Z,102595.83
2019-01-12T22:47:10.050Z,102588.19
2019-01-12T22:49:39.157Z,102588.42
2019-01-12T22:52:08.783Z,102583.50
2019-01-12T22:54:38.872Z,102589.49
2019-01-12T22:57:07.889Z,102580.73
2019-01-12T22:59:36.961Z,102579.05
2019-01-12T23:02:08.757Z,102576.33
2019-01-12T23:04:38.041Z,102585.01
2019-01-12T23:07:11.374Z,102573.84
2019-01-12T23:09:36.514Z,102578.44
2019-01-12T23:12:05.665Z,102584.11
2019-01-12T23:14:34.742Z,102580.27
2019-01-12T23:17:05.342Z,102581.02
2019-01-12T23:19:35.083Z,102582.08
2019-01-12T23:22:04.694Z,102588.05
2019-01-12T23:24:33.741Z,102579.05
2019-01-12T23:27:02.888Z,102575.48
2019-01-12T23:29:31.983Z,102586.30
2019-01-12T23:32:01.055Z,102592.78
2019-01-12T23:34:30.107Z,102586.77
2019-01-12T23:36:59.118Z,102584.05
2019-01-12T23:39:28.238Z,102573.38
2019-01-12T23:41:57.282Z,102579.97
2019-01-12T23:44:26.329Z,102568.87
2019-01-12T23:46:55.331Z,102568.64
2019-01-12T23:49:28.206Z,102572.72
2019-01-12T23:51:57.280Z,102574.45
2019-01-12T23:54:26.364Z,102575.66
2019-01-12T23:56:55.402Z,102582.23
2019-01-12T23:59:24.395Z,102573.61
